Time;durP1;ratioP1;P1;durP2;ratioP2;P2;SDS_P1;SDS_P2;PMS_P1;PMS_P2;Temp;Humidity;BMP_temperature;BMP_pressure;BME280_temperature;BME280_humidity;BME280_pressure;Samples;Min_cycle;Max_cycle;Signal;HPM_P1;HPM_P2
2022/02/07 00:00:02;;;;;;;;;;;4.70;99.90;;;;;;5113309;28;19912;-74
2022/02/07 00:02:40;;;;;;;;;;;4.90;99.90;;;;;;5106751;28;19923;-72
2022/02/07 00:05:05;;;;;;;;;;;4.90;99.90;;;;;;5103340;28;19919;-74
2022/02/07 00:07:31;;;;;;;;;;;4.90;99.90;;;;;;5109481;28;19916;-73
2022/02/07 00:09:56;;;;;;;;;;;4.80;99.90;;;;;;5105364;28;19924;-74
2022/02/07 00:12:22;;;;;;;;;;;4.80;99.90;;;;;;5106356;28;19966;-74
2022/02/07 00:14:47;;;;;;;;;;;4.90;99.90;;;;;;5109591;28;19916;-74
2022/02/07 00:17:13;;;;;;;;;;;5.10;99.90;;;;;;5111913;28;19916;-73
2022/02/07 00:19:39;;;;;;;;;;;4.90;99.90;;;;;;5105896;28;19939;-73
2022/02/07 00:22:05;;;;;;;;;;;4.50;99.90;;;;;;5106737;28;19916;-74
2022/02/07 00:24:31;;;;;;;;;;;4.00;99.90;;;;;;5114834;28;19927;-73
2022/02/07 00:26:56;;;;;;;;;;;3.70;99.90;;;;;;5103103;28;20218;-74
2022/02/07 00:29:22;;;;;;;;;;;3.60;99.90;;;;;;5113225;28;19926;-74
2022/02/07 00:31:47;;;;;;;;;;;3.50;99.90;;;;;;5110394;28;20314;-73
2022/02/07 00:34:13;;;;;;;;;;;3.40;99.90;;;;;;5108445;28;19923;-73
2022/02/07 00:36:39;;;;;;;;;;;3.30;99.90;;;;;;5102245;28;19916;-73
2022/02/07 00:39:17;;;;;;;;;;;3.40;99.90;;;;;;5096871;28;20258;-73
2022/02/07 00:41:49;;;;;;;;;;;3.40;99.90;;;;;;5105731;28;19916;-73
2022/02/07 00:44:18;;;;;;;;;;;3.50;99.90;;;;;;5111931;28;19954;-73
2022/02/07 00:46:57;;;;;;;;;;;3.70;99.90;;;;;;5105866;28;19962;-73
2022/02/07 00:49:22;;;;;;;;;;;3.70;99.90;;;;;;5115237;27;20280;-73
2022/02/07 00:51:48;;;;;;;;;;;3.60;99.90;;;;;;5113289;28;20023;-73
2022/02/07 00:54:14;;;;;;;;;;;3.80;99.90;;;;;;5108281;28;19998;-73
2022/02/07 00:56:40;;;;;;;;;;;3.90;99.90;;;;;;5105006;28;20004;-73
2022/02/07 00:59:05;;;;;;;;;;;4.10;99.90;;;;;;5112555;28;19963;-73
2022/02/07 01:01:32;;;;;;;;;;;4.20;99.90;;;;;;5103003;28;19920;-73
2022/02/07 01:03:57;;;;;;;;;;;4.10;99.90;;;;;;5099165;28;19919;-73
2022/02/07 01:06:23;;;;;;;;;;;4.30;99.90;;;;;;5101176;28;19998;-73
2022/02/07 01:08:53;;;;;;;;;;;4.20;99.90;;;;;;5101077;28;20311;-74
2022/02/07 01:14:02;;;;;;;;;;;4.30;99.90;;;;;;5106878;28;20026;-74
2022/02/07 01:52:09;;;;;;;;;;;4.50;99.90;;;;;;5105452;28;20357;-74
2022/02/07 01:54:48;;;;;;;;;;;4.50;99.90;;;;;;5101167;28;19916;-73
2022/02/07 01:57:13;;;;;;;;;;;4.50;99.90;;;;;;5096577;28;20254;-74
2022/02/07 01:59:40;;;;;;;;;;;4.50;99.90;;;;;;5101576;28;19916;-74
2022/02/07 02:02:05;;;;;;;;;;;4.50;99.90;;;;;;5104134;28;19916;-73
2022/02/07 02:04:31;;;;;;;;;;;4.60;99.90;;;;;;5103642;28;19958;-73
2022/02/07 02:06:57;;;;;;;;;;;4.60;99.90;;;;;;5106404;28;20609;-73
2022/02/07 02:09:23;;;;;;;;;;;4.60;99.90;;;;;;5096264;28;19912;-73
2022/02/07 02:11:49;;;;;;;;;;;4.70;99.90;;;;;;5100664;28;19947;-74
2022/02/07 02:15:04;;;;;;;;;;;4.70;99.90;;;;;;5097955;28;19986;-73
2022/02/07 02:17:23;;;;;;;;;;;4.80;99.90;;;;;;5096183;28;19930;-74
2022/02/07 02:20:38;;;;;;;;;;;4.80;99.90;;;;;;5100028;28;19923;-73
2022/02/07 02:46:47;;;;;;;;;;;4.90;99.90;;;;;;5102439;28;19919;-74
2022/02/07 02:49:12;;;;;;;;;;;4.90;99.90;;;;;;5099319;28;19935;-74
2022/02/07 02:51:38;;;;;;;;;;;5.00;99.90;;;;;;5104523;28;19962;-74
2022/02/07 02:54:05;;;;;;;;;;;5.10;99.90;;;;;;5103439;28;19931;-73
2022/02/07 02:56:32;;;;;;;;;;;5.10;99.90;;;;;;5098428;28;19916;-73
2022/02/07 02:58:57;;;;;;;;;;;5.00;99.90;;;;;;5106870;28;19914;-74
2022/02/07 03:01:23;;;;;;;;;;;5.00;99.90;;;;;;5106369;28;20010;-74
2022/02/07 03:03:49;;;;;;;;;;;4.90;99.90;;;;;;5110546;28;20323;-73
2022/02/07 03:06:14;;;;;;;;;;;4.80;99.90;;;;;;5110393;28;19922;-74
2022/02/07 03:08:40;;;;;;;;;;;4.90;99.90;;;;;;5101318;28;19916;-73
2022/02/07 03:11:12;;;;;;;;;;;4.90;99.90;;;;;;5105111;28;19927;-74
2022/02/07 03:13:58;;;;;;;;;;;4.90;99.90;;;;;;5102428;28;19957;-73
2022/02/07 03:16:39;;;;;;;;;;;5.00;99.90;;;;;;5097296;28;20116;-73
2022/02/07 03:19:06;;;;;;;;;;;5.10;99.90;;;;;;5105526;28;19957;-73
2022/02/07 03:21:31;;;;;;;;;;;5.10;99.90;;;;;;5105741;28;19911;-73
2022/02/07 03:23:57;;;;;;;;;;;5.20;99.90;;;;;;5098211;28;19916;-74
2022/02/07 03:26:23;;;;;;;;;;;5.20;99.90;;;;;;5106908;28;21661;-73
2022/02/07 03:28:49;;;;;;;;;;;5.30;99.90;;;;;;5100925;28;19923;-73
2022/02/07 03:31:15;;;;;;;;;;;5.30;99.90;;;;;;5095024;28;19916;-73
2022/02/07 03:33:41;;;;;;;;;;;5.20;99.90;;;;;;5100566;28;20022;-74
2022/02/07 03:36:06;;;;;;;;;;;5.30;99.90;;;;;;5101534;28;19965;-74
2022/02/07 03:38:32;;;;;;;;;;;5.20;99.90;;;;;;5104340;28;19916;-73
2022/02/07 03:40:57;;;;;;;;;;;5.30;99.90;;;;;;5094795;28;19916;-74
2022/02/07 03:43:23;;;;;;;;;;;5.30;99.90;;;;;;5103645;28;19916;-74
2022/02/07 03:45:49;;;;;;;;;;;5.30;99.90;;;;;;5094862;28;19920;-73
2022/02/07 03:48:14;;;;;;;;;;;5.30;99.90;;;;;;5107850;28;19955;-73
2022/02/07 03:50:40;;;;;;;;;;;5.30;99.90;;;;;;5104568;27;19964;-73
2022/02/07 03:53:05;;;;;;;;;;;5.40;99.90;;;;;;5103160;28;19912;-73
2022/02/07 03:55:31;;;;;;;;;;;5.30;99.90;;;;;;5113176;28;19946;-73
2022/02/07 03:57:57;;;;;;;;;;;5.40;99.90;;;;;;5109961;28;20298;-74
2022/02/07 04:00:23;;;;;;;;;;;5.40;99.90;;;;;;5106080;28;19916;-73
2022/02/07 04:02:51;;;;;;;;;;;5.40;99.90;;;;;;5103744;28;20303;-73
2022/02/07 04:05:40;;;;;;;;;;;5.40;99.90;;;;;;5097453;28;19918;-74
2022/02/07 04:08:08;;;;;;;;;;;5.40;99.90;;;;;;5101176;28;19942;-73
2022/02/07 04:10:39;;;;;;;;;;;5.20;99.90;;;;;;5108180;28;19924;-74
2022/02/07 04:13:07;;;;;;;;;;;5.20;99.90;;;;;;5098529;28;19961;-73
2022/02/07 04:15:33;;;;;;;;;;;5.20;99.90;;;;;;5102241;28;20400;-73
2022/02/07 04:18:03;;;;;;;;;;;5.10;99.90;;;;;;5102449;28;19951;-73
2022/02/07 04:20:29;;;;;;;;;;;5.00;99.90;;;;;;5101405;28;19923;-73
2022/02/07 04:22:54;;;;;;;;;;;5.00;99.90;;;;;;5113559;28;19999;-72
2022/02/07 04:25:20;;;;;;;;;;;5.10;99.90;;;;;;5106117;28;19919;-73
2022/02/07 04:27:45;;;;;;;;;;;5.00;99.90;;;;;;5111138;28;19912;-73
2022/02/07 04:30:11;;;;;;;;;;;5.00;99.90;;;;;;5105863;28;19961;-73
2022/02/07 04:32:37;;;;;;;;;;;5.10;99.90;;;;;;5113449;28;19955;-74
2022/02/07 04:35:03;;;;;;;;;;;5.10;99.90;;;;;;5114877;28;19920;-74
2022/02/07 04:37:29;;;;;;;;;;;5.20;99.90;;;;;;5098946;28;19927;-73
2022/02/07 04:39:54;;;;;;;;;;;5.30;99.90;;;;;;5106095;28;19923;-73
2022/02/07 04:42:22;;;;;;;;;;;5.40;99.90;;;;;;5110670;28;19912;-74
2022/02/07 04:45:14;;;;;;;;;;;5.20;99.90;;;;;;5115032;28;19911;-73
2022/02/07 04:52:55;;;;;;;;;;;5.30;99.90;;;;;;5102776;28;20310;-73
2022/02/07 04:58:04;;;;;;;;;;;5.30;99.90;;;;;;5116893;28;20196;-74
2022/02/07 05:00:45;;;;;;;;;;;5.40;99.90;;;;;;5103621;28;20301;-74
2022/02/07 05:03:17;;;;;;;;;;;5.30;99.90;;;;;;5096888;28;20321;-74
2022/02/07 05:13:46;;;;;;;;;;;5.20;99.90;;;;;;5104323;28;19919;-74
2022/02/07 05:16:22;;;;;;;;;;;5.20;99.90;;;;;;5112015;28;19919;-73
2022/02/07 05:18:50;;;;;;;;;;;5.20;99.90;;;;;;5103830;28;19938;-74
2022/02/07 05:21:16;;;;;;;;;;;5.20;99.90;;;;;;5110914;28;20010;-74
2022/02/07 05:23:42;;;;;;;;;;;5.10;99.90;;;;;;5105369;28;20007;-74
2022/02/07 05:26:07;;;;;;;;;;;5.20;99.90;;;;;;5097416;28;20255;-74
2022/02/07 05:28:33;;;;;;;;;;;5.10;99.90;;;;;;5113025;28;19916;-73
2022/02/07 05:30:58;;;;;;;;;;;5.10;99.90;;;;;;5097000;28;19919;-73
2022/02/07 05:33:24;;;;;;;;;;;5.20;99.90;;;;;;5097800;28;19913;-74
2022/02/07 05:35:49;;;;;;;;;;;5.10;99.90;;;;;;5102192;28;19919;-74
2022/02/07 05:38:15;;;;;;;;;;;5.10;99.90;;;;;;5106769;28;19916;-73
2022/02/07 05:41:16;;;;;;;;;;;5.20;99.90;;;;;;5096956;28;19920;-73
2022/02/07 05:43:33;;;;;;;;;;;5.20;99.90;;;;;;5102961;28;19913;-73
2022/02/07 05:45:59;;;;;;;;;;;5.20;99.90;;;;;;5101388;28;20258;-73
2022/02/07 05:48:24;;;;;;;;;;;5.20;99.90;;;;;;5107467;28;20002;-73
2022/02/07 05:50:50;;;;;;;;;;;5.30;99.90;;;;;;5108281;27;20005;-73
2022/02/07 05:53:15;;;;;;;;;;;5.30;99.90;;;;;;5096019;28;20027;-73
2022/02/07 05:55:41;;;;;;;;;;;5.30;99.90;;;;;;5110812;28;19976;-73
2022/02/07 05:58:06;;;;;;;;;;;5.40;99.90;;;;;;5100573;28;19911;-72
2022/02/07 06:00:33;;;;;;;;;;;5.30;99.90;;;;;;5100425;28;19916;-73
2022/02/07 06:02:59;;;;;;;;;;;5.20;99.90;;;;;;5097008;28;19916;-73
2022/02/07 06:05:25;;;;;;;;;;;5.30;99.90;;;;;;5112804;28;19916;-73
2022/02/07 06:07:50;;;;;;;;;;;5.30;99.90;;;;;;5106256;28;19923;-74
2022/02/07 06:10:16;;;;;;;;;;;5.30;99.90;;;;;;5103203;28;19931;-73
2022/02/07 06:12:44;;;;;;;;;;;5.30;99.90;;;;;;5094861;28;20006;-73
2022/02/07 06:15:10;;;;;;;;;;;5.30;99.90;;;;;;5101381;28;19919;-73
2022/02/07 06:17:35;;;;;;;;;;;5.20;99.90;;;;;;5100275;28;19918;-73
2022/02/07 06:20:01;;;;;;;;;;;5.20;99.90;;;;;;5097878;28;19958;-73
2022/02/07 06:22:27;;;;;;;;;;;5.20;99.90;;;;;;5099387;28;19969;-73
2022/02/07 06:24:53;;;;;;;;;;;5.10;99.90;;;;;;5110601;28;19923;-73
2022/02/07 06:27:18;;;;;;;;;;;5.00;99.90;;;;;;5105163;28;19986;-73
2022/02/07 06:29:44;;;;;;;;;;;5.00;99.90;;;;;;5103990;28;19923;-74
2022/02/07 06:32:09;;;;;;;;;;;5.00;99.90;;;;;;5095909;28;20284;-73
2022/02/07 06:34:35;;;;;;;;;;;5.00;99.90;;;;;;5095644;28;19920;-74
2022/02/07 06:37:01;;;;;;;;;;;5.00;99.90;;;;;;5102265;28;20195;-73
2022/02/07 06:39:29;;;;;;;;;;;5.00;99.90;;;;;;5098402;28;19978;-74
2022/02/07 06:41:56;;;;;;;;;;;5.00;99.90;;;;;;5105419;28;19923;-73
2022/02/07 06:44:22;;;;;;;;;;;5.00;99.90;;;;;;5098682;28;19922;-73
2022/02/07 06:46:48;;;;;;;;;;;4.90;99.90;;;;;;5104688;28;19916;-73
2022/02/07 06:49:13;;;;;;;;;;;4.90;99.90;;;;;;5109442;27;19913;-74
2022/02/07 06:51:39;;;;;;;;;;;4.80;99.90;;;;;;5107004;28;19967;-74
2022/02/07 06:54:04;;;;;;;;;;;4.80;99.90;;;;;;5104375;28;20011;-73
2022/02/07 06:56:30;;;;;;;;;;;4.90;99.90;;;;;;5104319;28;19957;-73
2022/02/07 06:58:56;;;;;;;;;;;4.80;99.90;;;;;;5104785;28;19920;-73
2022/02/07 07:01:21;;;;;;;;;;;4.80;99.90;;;;;;5102552;28;19965;-73
2022/02/07 07:03:47;;;;;;;;;;;4.80;99.90;;;;;;5109014;28;19915;-73
2022/02/07 07:06:14;;;;;;;;;;;4.70;99.90;;;;;;5108164;28;20634;-73
2022/02/07 07:08:45;;;;;;;;;;;4.70;99.90;;;;;;5105277;28;20360;-74
2022/02/07 07:11:13;;;;;;;;;;;4.70;99.90;;;;;;5099817;28;19946;-72
2022/02/07 07:13:44;;;;;;;;;;;4.80;99.90;;;;;;5103602;28;20293;-73
2022/02/07 07:19:03;;;;;;;;;;;5.00;99.90;;;;;;5089561;28;20002;-73
2022/02/07 07:21:29;;;;;;;;;;;5.10;99.90;;;;;;5103988;28;19916;-73
2022/02/07 07:23:54;;;;;;;;;;;5.20;99.90;;;;;;5102310;28;20307;-73
2022/02/07 07:26:23;;;;;;;;;;;5.20;99.90;;;;;;5110488;28;19954;-73
2022/02/07 07:28:49;;;;;;;;;;;5.30;99.90;;;;;;5104328;28;19916;-73
2022/02/07 07:31:16;;;;;;;;;;;5.30;99.90;;;;;;5108685;28;20222;-73
2022/02/07 07:33:45;;;;;;;;;;;5.40;99.90;;;;;;5105104;28;19912;-73
2022/02/07 07:36:10;;;;;;;;;;;5.40;99.90;;;;;;5107716;28;19922;-73
2022/02/07 07:38:37;;;;;;;;;;;5.40;99.90;;;;;;5107275;28;19920;-73
2022/02/07 07:41:02;;;;;;;;;;;5.40;99.90;;;;;;5105726;28;19912;-73
2022/02/07 07:43:28;;;;;;;;;;;5.40;99.90;;;;;;5112106;28;19976;-73
2022/02/07 07:46:06;;;;;;;;;;;5.40;99.90;;;;;;5107182;28;19927;-73
2022/02/07 07:48:33;;;;;;;;;;;5.30;99.90;;;;;;5108454;28;19943;-73
2022/02/07 07:51:07;;;;;;;;;;;5.20;99.90;;;;;;5116135;27;19965;-73
2022/02/07 08:04:11;;;;;;;;;;;5.50;99.90;;;;;;5113338;28;19912;-73
2022/02/07 08:09:44;;;;;;;;;;;5.60;99.90;;;;;;5108828;28;19920;-74
2022/02/07 08:12:09;;;;;;;;;;;5.70;99.90;;;;;;5115244;28;19919;-74
2022/02/07 08:14:35;;;;;;;;;;;5.70;99.90;;;;;;5115642;28;19912;-74
2022/02/07 08:17:02;;;;;;;;;;;5.70;99.90;;;;;;5103089;28;19912;-73
2022/02/07 08:19:29;;;;;;;;;;;5.80;99.90;;;;;;5109888;28;20306;-74
2022/02/07 08:21:55;;;;;;;;;;;5.90;99.90;;;;;;5107920;28;20052;-73
2022/02/07 08:24:21;;;;;;;;;;;5.90;99.90;;;;;;5107622;28;19942;-74
2022/02/07 08:26:47;;;;;;;;;;;6.10;99.90;;;;;;5106360;28;19954;-73
2022/02/07 08:29:13;;;;;;;;;;;6.20;99.90;;;;;;5107025;28;20499;-73
2022/02/07 08:31:38;;;;;;;;;;;6.20;99.90;;;;;;5101270;28;19924;-74
2022/02/07 08:34:04;;;;;;;;;;;6.20;99.90;;;;;;5113688;28;19912;-73
2022/02/07 08:36:29;;;;;;;;;;;6.10;99.90;;;;;;5112055;28;19916;-74
2022/02/07 08:38:55;;;;;;;;;;;6.10;99.90;;;;;;5109283;28;19912;-73
2022/02/07 08:41:20;;;;;;;;;;;6.10;99.90;;;;;;5100913;28;20222;-73
2022/02/07 08:43:46;;;;;;;;;;;6.00;99.90;;;;;;5107815;28;20316;-74
2022/02/07 08:46:11;;;;;;;;;;;6.10;99.90;;;;;;5102086;28;19923;-73
2022/02/07 08:48:37;;;;;;;;;;;6.10;99.90;;;;;;5106323;28;19998;-74
2022/02/07 08:51:04;;;;;;;;;;;6.10;99.90;;;;;;5107521;27;19920;-73
2022/02/07 08:53:35;;;;;;;;;;;6.10;99.90;;;;;;5104881;28;19938;-73
2022/02/07 08:56:03;;;;;;;;;;;6.10;99.90;;;;;;5099048;28;20010;-73
2022/02/07 08:58:31;;;;;;;;;;;6.10;99.90;;;;;;5103564;28;20261;-74
2022/02/07 09:01:44;;;;;;;;;;;6.10;99.90;;;;;;5111090;28;20245;-73
2022/02/07 09:04:30;;;;;;;;;;;6.00;99.90;;;;;;5101695;28;19912;-73
2022/02/07 09:09:08;;;;;;;;;;;5.80;99.90;;;;;;5113574;28;20326;-74
2022/02/07 09:11:34;;;;;;;;;;;5.90;99.90;;;;;;5110241;28;20217;-73
2022/02/07 09:14:09;;;;;;;;;;;6.00;99.90;;;;;;5103561;28;19926;-74
2022/02/07 09:16:35;;;;;;;;;;;6.10;99.90;;;;;;5107429;27;19920;-73
2022/02/07 09:19:02;;;;;;;;;;;6.20;99.90;;;;;;5111753;28;19977;-73
2022/02/07 09:21:28;;;;;;;;;;;6.30;99.90;;;;;;5109913;28;19915;-73
2022/02/07 09:23:55;;;;;;;;;;;6.30;99.90;;;;;;5109896;28;19943;-73
2022/02/07 09:26:21;;;;;;;;;;;6.40;99.90;;;;;;5108605;28;19912;-73
2022/02/07 09:28:46;;;;;;;;;;;6.40;99.90;;;;;;5108944;28;19922;-74
2022/02/07 09:31:12;;;;;;;;;;;6.30;99.90;;;;;;5111833;28;19984;-73
2022/02/07 09:33:40;;;;;;;;;;;6.40;99.90;;;;;;5106816;28;19951;-74
2022/02/07 09:36:05;;;;;;;;;;;6.50;99.90;;;;;;5112411;28;20211;-73
2022/02/07 09:38:32;;;;;;;;;;;6.60;99.90;;;;;;5096726;28;19926;-72
2022/02/07 09:40:58;;;;;;;;;;;6.70;99.90;;;;;;5109417;28;20556;-73
2022/02/07 09:43:32;;;;;;;;;;;6.70;99.90;;;;;;5113930;28;19907;-74
2022/02/07 09:46:05;;;;;;;;;;;6.70;99.90;;;;;;5099842;28;19916;-73
2022/02/07 09:48:32;;;;;;;;;;;6.80;99.90;;;;;;5106803;28;19915;-73
2022/02/07 09:51:00;;;;;;;;;;;6.80;99.90;;;;;;5103852;28;20451;-72
2022/02/07 09:53:27;;;;;;;;;;;6.90;99.90;;;;;;5101451;28;19919;-73
2022/02/07 09:55:56;;;;;;;;;;;7.00;99.90;;;;;;5108106;28;19962;-74
2022/02/07 09:58:22;;;;;;;;;;;7.00;99.90;;;;;;5106965;28;19912;-73
2022/02/07 10:00:48;;;;;;;;;;;7.00;99.90;;;;;;5113130;28;20011;-73
2022/02/07 10:03:19;;;;;;;;;;;7.50;99.90;;;;;;5112335;28;19995;-73
2022/02/07 10:05:52;;;;;;;;;;;7.70;99.90;;;;;;5108778;28;19957;-73
2022/02/07 10:17:20;;;;;;;;;;;6.90;99.90;;;;;;5099499;28;19916;-73
2022/02/07 10:19:20;;;;;;;;;;;6.90;99.90;;;;;;5102235;28;20249;-73
2022/02/07 10:43:45;;;;;;;;;;;7.70;99.90;;;;;;5108962;27;19959;-73
2022/02/07 10:46:17;;;;;;;;;;;7.60;99.90;;;;;;5103560;28;19916;-73
2022/02/07 10:48:49;;;;;;;;;;;7.40;99.90;;;;;;5107518;28;19919;-73
2022/02/07 10:51:22;;;;;;;;;;;7.50;99.90;;;;;;5103462;28;19916;-73
2022/02/07 10:53:49;;;;;;;;;;;7.60;99.90;;;;;;5110397;28;19919;-72
2022/02/07 10:56:16;;;;;;;;;;;7.80;99.90;;;;;;5108973;28;19916;-74
2022/02/07 10:58:42;;;;;;;;;;;8.10;99.90;;;;;;5095438;28;20298;-74
2022/02/07 11:01:31;;;;;;;;;;;8.00;99.90;;;;;;5106695;28;19919;-74
2022/02/07 11:04:03;;;;;;;;;;;7.60;99.90;;;;;;5106556;28;19919;-73
2022/02/07 11:06:38;;;;;;;;;;;7.50;99.90;;;;;;5114109;28;19916;-74
2022/02/07 11:14:57;;;;;;;;;;;6.90;99.90;;;;;;5109868;28;19958;-72
2022/02/07 11:23:26;;;;;;;;;;;7.10;99.90;;;;;;5104581;28;19912;-74
2022/02/07 11:28:22;;;;;;;;;;;7.90;99.90;;;;;;5109251;28;19916;-74
2022/02/07 11:30:52;;;;;;;;;;;8.30;99.90;;;;;;5093919;28;20314;-74
2022/02/07 11:33:28;;;;;;;;;;;8.70;99.90;;;;;;5094901;28;19912;-74
2022/02/07 11:35:54;;;;;;;;;;;8.80;99.90;;;;;;5110345;28;19912;-73
2022/02/07 11:38:19;;;;;;;;;;;8.80;99.90;;;;;;5099507;28;19922;-74
2022/02/07 11:41:02;;;;;;;;;;;8.80;99.90;;;;;;5105132;28;19981;-74
2022/02/07 11:43:30;;;;;;;;;;;8.90;99.90;;;;;;5107959;28;20245;-74
2022/02/07 11:46:05;;;;;;;;;;;9.00;99.90;;;;;;5097215;28;20280;-74
2022/02/07 11:48:33;;;;;;;;;;;9.00;99.90;;;;;;5105205;28;20311;-72
2022/02/07 11:51:01;;;;;;;;;;;9.00;99.90;;;;;;5105422;28;20269;-74
2022/02/07 11:53:40;;;;;;;;;;;9.10;99.90;;;;;;5106383;28;20299;-74
2022/02/07 11:56:25;;;;;;;;;;;9.10;99.90;;;;;;5102529;28;19920;-74
2022/02/07 11:59:17;;;;;;;;;;;9.20;99.90;;;;;;5111958;28;19912;-74
2022/02/07 12:01:57;;;;;;;;;;;9.30;99.90;;;;;;5108214;28;19916;-74
2022/02/07 12:04:32;;;;;;;;;;;9.20;99.90;;;;;;5103122;28;19954;-73
2022/02/07 12:07:07;;;;;;;;;;;9.10;99.90;;;;;;5103116;28;19920;-73
2022/02/07 12:09:33;;;;;;;;;;;8.90;99.90;;;;;;5098909;28;19920;-73
2022/02/07 12:11:59;;;;;;;;;;;9.10;99.90;;;;;;5108831;28;19958;-73
2022/02/07 12:14:32;;;;;;;;;;;9.00;99.90;;;;;;5105021;28;19940;-74
2022/02/07 12:16:58;;;;;;;;;;;9.40;99.90;;;;;;5101624;27;19912;-75
2022/02/07 12:19:34;;;;;;;;;;;9.60;99.90;;;;;;5118347;28;19923;-73
2022/02/07 12:22:10;;;;;;;;;;;9.60;99.90;;;;;;5109791;28;19939;-74
2022/02/07 12:24:52;;;;;;;;;;;9.70;99.90;;;;;;5103381;28;20035;-74
2022/02/07 12:27:19;;;;;;;;;;;9.60;99.90;;;;;;5106192;28;19912;-74
2022/02/07 12:30:05;;;;;;;;;;;9.40;99.90;;;;;;5104693;28;19912;-73
2022/02/07 12:32:31;;;;;;;;;;;9.20;99.90;;;;;;5106440;28;20003;-74
2022/02/07 12:34:56;;;;;;;;;;;9.20;99.90;;;;;;5106279;28;20004;-74
2022/02/07 12:37:23;;;;;;;;;;;9.20;99.90;;;;;;5097901;28;19923;-75
2022/02/07 12:39:49;;;;;;;;;;;9.30;99.90;;;;;;5110720;28;20314;-73
2022/02/07 12:42:15;;;;;;;;;;;9.40;99.90;;;;;;5100701;28;19919;-74
2022/02/07 12:44:41;;;;;;;;;;;9.30;99.90;;;;;;5110715;28;20014;-73
2022/02/07 12:47:09;;;;;;;;;;;9.10;99.90;;;;;;5109655;28;20490;-73
2022/02/07 12:49:35;;;;;;;;;;;9.10;99.90;;;;;;5098081;28;19935;-74
2022/02/07 12:52:01;;;;;;;;;;;9.00;99.90;;;;;;5104334;28;19914;-72
2022/02/07 12:54:26;;;;;;;;;;;8.80;99.90;;;;;;5108893;28;20210;-74
2022/02/07 12:56:58;;;;;;;;;;;8.60;99.90;;;;;;5104258;28;20007;-73
2022/02/07 12:59:25;;;;;;;;;;;8.70;99.90;;;;;;5106697;28;19915;-74
2022/02/07 13:01:53;;;;;;;;;;;8.70;99.90;;;;;;5112864;28;20246;-73
2022/02/07 13:04:20;;;;;;;;;;;8.50;99.90;;;;;;5097216;28;19912;-72
2022/02/07 13:06:48;;;;;;;;;;;8.20;99.90;;;;;;5100871;28;19934;-73
2022/02/07 13:09:20;;;;;;;;;;;8.10;99.90;;;;;;5103693;28;20204;-74
2022/02/07 13:11:48;;;;;;;;;;;8.20;99.90;;;;;;5096165;28;20414;-74
2022/02/07 13:14:15;;;;;;;;;;;8.20;99.90;;;;;;5097767;28;19919;-73
2022/02/07 13:16:40;;;;;;;;;;;8.30;99.90;;;;;;5097238;28;19912;-73
2022/02/07 13:19:07;;;;;;;;;;;8.20;99.90;;;;;;5114177;27;20303;-73
2022/02/07 13:21:39;;;;;;;;;;;8.10;99.90;;;;;;5107801;28;19916;-73
2022/02/07 13:24:12;;;;;;;;;;;7.90;99.90;;;;;;5108627;28;19958;-73
2022/02/07 13:26:38;;;;;;;;;;;7.70;99.90;;;;;;5107988;28;19922;-74
2022/02/07 13:29:04;;;;;;;;;;;7.90;99.90;;;;;;5105424;28;19923;-73
2022/02/07 13:31:31;;;;;;;;;;;8.00;99.90;;;;;;5110441;28;19920;-73
2022/02/07 13:34:00;;;;;;;;;;;8.10;99.90;;;;;;5097959;28;19923;-73
2022/02/07 13:36:26;;;;;;;;;;;8.10;99.90;;;;;;5103754;28;19911;-74
2022/02/07 13:38:59;;;;;;;;;;;7.90;99.90;;;;;;5098073;28;19919;-73
2022/02/07 13:41:26;;;;;;;;;;;7.90;99.90;;;;;;5096547;28;19938;-73
2022/02/07 13:43:51;;;;;;;;;;;8.00;99.90;;;;;;5105041;28;19919;-73
2022/02/07 13:46:17;;;;;;;;;;;8.10;99.90;;;;;;5096484;28;19912;-74
2022/02/07 13:48:45;;;;;;;;;;;8.10;99.90;;;;;;5103820;28;19919;-73
2022/02/07 13:51:10;;;;;;;;;;;8.10;99.90;;;;;;5096161;28;20269;-73
2022/02/07 13:53:38;;;;;;;;;;;8.00;99.90;;;;;;5103608;28;19946;-73
2022/02/07 13:56:03;;;;;;;;;;;7.90;99.90;;;;;;5107878;28;19920;-73
2022/02/07 13:58:32;;;;;;;;;;;7.70;99.90;;;;;;5101208;28;19926;-73
2022/02/07 14:00:59;;;;;;;;;;;7.70;99.90;;;;;;5097698;28;19916;-74
2022/02/07 14:03:39;;;;;;;;;;;7.70;99.90;;;;;;5103087;28;19939;-73
2022/02/07 14:06:10;;;;;;;;;;;7.70;99.90;;;;;;5098272;28;19955;-73
2022/02/07 14:08:36;;;;;;;;;;;7.70;99.90;;;;;;5101389;28;19917;-74
2022/02/07 14:11:02;;;;;;;;;;;7.80;99.90;;;;;;5096480;28;19920;-74
2022/02/07 14:13:28;;;;;;;;;;;7.70;99.90;;;;;;5105229;28;19955;-74
2022/02/07 14:15:54;;;;;;;;;;;7.70;99.90;;;;;;5107568;28;19955;-74
2022/02/07 14:18:21;;;;;;;;;;;7.60;99.90;;;;;;5102874;28;19920;-74
2022/02/07 14:20:46;;;;;;;;;;;7.60;99.90;;;;;;5101962;28;19916;-73
2022/02/07 14:23:13;;;;;;;;;;;7.60;99.90;;;;;;5107777;28;20246;-73
2022/02/07 14:25:41;;;;;;;;;;;7.60;99.90;;;;;;5100804;28;19916;-73
2022/02/07 14:28:06;;;;;;;;;;;7.50;99.90;;;;;;5095754;28;19912;-74
2022/02/07 14:30:32;;;;;;;;;;;7.50;99.90;;;;;;5095810;28;19920;-73
2022/02/07 14:32:59;;;;;;;;;;;7.50;99.90;;;;;;5094648;28;19916;-74
2022/02/07 14:35:25;;;;;;;;;;;7.40;99.90;;;;;;5094021;28;19919;-74
2022/02/07 14:37:50;;;;;;;;;;;7.40;99.90;;;;;;5103773;28;19916;-74
2022/02/07 14:40:16;;;;;;;;;;;7.30;99.90;;;;;;5103686;28;19919;-73
2022/02/07 14:42:42;;;;;;;;;;;7.30;99.90;;;;;;5103687;28;19920;-73
2022/02/07 14:50:11;;;;;;;;;;;7.30;99.90;;;;;;5111501;27;19919;-72
2022/02/07 14:52:37;;;;;;;;;;;7.30;99.90;;;;;;5111668;28;20227;-73
2022/02/07 14:55:03;;;;;;;;;;;7.20;99.90;;;;;;5102479;28;19911;-74
2022/02/07 14:57:29;;;;;;;;;;;7.20;99.90;;;;;;5099419;28;19912;-74
2022/02/07 14:59:54;;;;;;;;;;;7.20;99.90;;;;;;5094186;28;19923;-73
2022/02/07 15:02:21;;;;;;;;;;;7.20;99.90;;;;;;5096900;28;19988;-72
2022/02/07 15:04:48;;;;;;;;;;;7.20;99.90;;;;;;5104231;28;19948;-73
2022/02/07 15:07:14;;;;;;;;;;;7.20;99.90;;;;;;5097092;28;19916;-73
2022/02/07 15:09:39;;;;;;;;;;;7.20;99.90;;;;;;5103637;28;19962;-73
2022/02/07 15:12:05;;;;;;;;;;;7.20;99.90;;;;;;5099031;28;19912;-73
2022/02/07 15:14:31;;;;;;;;;;;7.10;99.90;;;;;;5103958;28;20342;-73
2022/02/07 15:16:56;;;;;;;;;;;7.10;99.90;;;;;;5099237;28;20219;-73
2022/02/07 15:19:24;;;;;;;;;;;7.10;99.90;;;;;;5106137;28;19912;-73
2022/02/07 15:21:50;;;;;;;;;;;7.10;99.90;;;;;;5106462;28;19918;-73
2022/02/07 15:24:16;;;;;;;;;;;7.20;99.90;;;;;;5111207;28;20430;-73
2022/02/07 15:26:42;;;;;;;;;;;7.10;99.90;;;;;;5102082;28;20010;-73
2022/02/07 15:29:08;;;;;;;;;;;7.10;99.90;;;;;;5107323;28;19912;-74
2022/02/07 15:31:34;;;;;;;;;;;7.00;99.90;;;;;;5101510;28;19916;-73
2022/02/07 15:34:00;;;;;;;;;;;7.00;99.90;;;;;;5105956;28;19916;-72
2022/02/07 15:36:26;;;;;;;;;;;6.90;99.90;;;;;;5101902;28;19918;-74
2022/02/07 15:38:53;;;;;;;;;;;6.90;99.90;;;;;;5101100;28;19922;-72
2022/02/07 15:41:19;;;;;;;;;;;6.90;99.90;;;;;;5100111;28;19916;-74
2022/02/07 15:43:44;;;;;;;;;;;6.90;99.90;;;;;;5100405;28;20200;-73
2022/02/07 15:46:10;;;;;;;;;;;6.90;99.90;;;;;;5104806;28;19923;-72
2022/02/07 15:48:36;;;;;;;;;;;6.90;99.90;;;;;;5104192;28;20314;-74
2022/02/07 15:51:02;;;;;;;;;;;6.90;99.90;;;;;;5114565;27;19924;-74
2022/02/07 15:53:28;;;;;;;;;;;6.80;99.90;;;;;;5104712;28;19961;-73
2022/02/07 15:55:54;;;;;;;;;;;6.80;99.90;;;;;;5099524;28;19920;-74
2022/02/07 15:58:20;;;;;;;;;;;6.70;99.90;;;;;;5098629;28;19916;-73
2022/02/07 16:00:45;;;;;;;;;;;6.60;99.90;;;;;;5114840;28;19919;-74
2022/02/07 16:03:11;;;;;;;;;;;6.60;99.90;;;;;;5097806;28;19958;-73
2022/02/07 16:05:37;;;;;;;;;;;6.40;99.90;;;;;;5098862;28;19916;-73
2022/02/07 16:08:02;;;;;;;;;;;6.40;99.90;;;;;;5098221;28;20007;-75
2022/02/07 16:10:32;;;;;;;;;;;6.30;99.90;;;;;;5110415;28;19924;-73
2022/02/07 16:13:10;;;;;;;;;;;6.20;99.90;;;;;;5111658;28;20566;-73
2022/02/07 16:15:37;;;;;;;;;;;6.10;99.90;;;;;;5109076;28;19920;-74
2022/02/07 16:18:03;;;;;;;;;;;6.00;99.90;;;;;;5103835;28;20330;-73
2022/02/07 16:20:28;;;;;;;;;;;5.90;99.90;;;;;;5109386;28;19957;-73
2022/02/07 16:22:54;;;;;;;;;;;5.90;99.90;;;;;;5106567;28;19916;-73
2022/02/07 16:25:19;;;;;;;;;;;5.80;99.90;;;;;;5104547;28;19916;-73
2022/02/07 16:27:45;;;;;;;;;;;5.80;99.90;;;;;;5111327;28;19935;-73
2022/02/07 16:30:11;;;;;;;;;;;5.70;99.90;;;;;;5112530;28;20322;-74
2022/02/07 16:32:36;;;;;;;;;;;5.70;99.90;;;;;;5106933;28;20364;-73
2022/02/07 16:35:02;;;;;;;;;;;5.60;99.90;;;;;;5111743;28;19926;-73
2022/02/07 16:37:27;;;;;;;;;;;5.60;99.90;;;;;;5114206;28;19916;-73
2022/02/07 16:39:53;;;;;;;;;;;5.50;99.90;;;;;;5116044;28;19916;-74
2022/02/07 16:42:18;;;;;;;;;;;5.60;99.90;;;;;;5114289;28;19923;-73
2022/02/07 16:44:49;;;;;;;;;;;5.50;99.90;;;;;;5115272;28;19918;-73
2022/02/07 16:47:15;;;;;;;;;;;5.50;99.90;;;;;;5113448;28;19916;-73
2022/02/07 16:49:41;;;;;;;;;;;5.40;99.90;;;;;;5115093;27;20289;-73
2022/02/07 16:52:07;;;;;;;;;;;5.40;99.90;;;;;;5109572;27;19927;-73
2022/02/07 16:54:34;;;;;;;;;;;5.40;99.90;;;;;;5114380;28;20377;-72
2022/02/07 16:57:00;;;;;;;;;;;5.30;99.90;;;;;;5112288;28;19915;-72
2022/02/07 16:59:27;;;;;;;;;;;5.30;99.90;;;;;;5113174;28;19951;-73
2022/02/07 17:01:53;;;;;;;;;;;5.30;99.90;;;;;;5112429;28;19941;-73